Flight Track Log - Related Links

Times and Time Zones

All times are in EST time to prevent confusion due to time zone crossing. See the JBU226 flight status page for this flight to view local times or setup timezone preferences in your user account.

Time Position Orientation Groundspeed Altitude Reporting Facility
EST Latitude Longitude Course Direction KTS MPH feet Rate Location/Type
Wed 06:45:07 AM 27.9667 -82.5500 354° North 174 200 1,000  Level Tampa TRACON
Wed 06:45:37 AM 27.9333 -82.5500 180° South 169 194 1,900 1,643 Climbing Tampa TRACON
Wed 06:46:31 AM 27.8833 -82.5667 196° South 239 275 3,300 2,450 Climbing Tampa TRACON
Wed 06:48:00 AM 28.4536 -82.5737 355° North  Level FlightAware Approximate
Wed 06:48:48 AM 27.9494 -82.6553 310° West 159 183 9,700  Level Jacksonville Center
Wed 06:49:00 AM 28.5765 -82.5833 North  Level FlightAware Approximate
Wed 06:49:49 AM 28.0453 -82.6364 10° North 238 274 11,100  Level Jacksonville Center
Wed 06:50:00 AM 28.6996 -82.5874 354° North  Level FlightAware Approximate
Wed 06:50:51 AM 28.1517 -82.6172 North 314 361 14,100  Level Jacksonville Center
Wed 06:51:49 AM 28.2581 -82.6028 North 357 411 16,300 2,359 Climbing Jacksonville Center
Wed 06:52:48 AM 28.3686 -82.5836 North 383 441 18,700 2,100 Climbing Jacksonville Center
Wed 06:53:49 AM 28.4772 -82.5833 360° North 390 449 20,500 1,636 Climbing Jacksonville Center
Wed 06:54:49 AM 28.5919 -82.5875 358° North 395 455 22,000 1,700 Climbing Jacksonville Center
Wed 06:55:49 AM 28.7025 -82.5944 357° North 405 466 23,900 1,700 Climbing Jacksonville Center
Wed 06:56:49 AM 28.8133 -82.6083 354° North 405 466 25,400 1,200 Climbing Jacksonville Center
Wed 06:57:49 AM 28.9281 -82.6222 354° North 405 466 26,300 1,240 Climbing Jacksonville Center
Wed 06:58:50 AM 29.0450 -82.6383 353° North 410 472 27,900 1,261 Climbing Jacksonville Center
Wed 06:59:48 AM 29.1639 -82.6572 352° North 416 479 28,800 1,261 Climbing Jacksonville Center
Wed 07:00:49 AM 29.2831 -82.6711 354° North 422 486 30,400 1,525 Climbing Jacksonville Center
Wed 07:01:50 AM 29.3978 -82.6900 352° North 422 486 31,900 843 Climbing Jacksonville Center
Wed 07:02:50 AM 29.5272 -82.6944 358° North 415 478 32,100 843 Climbing Jacksonville Center
Wed 07:03:51 AM 29.6400 -82.6919 North 401 461 33,600 1,400 Climbing Jacksonville Center
Wed 07:04:50 AM 29.7506 -82.6942 359° North 394 453 34,900 650 Climbing Jacksonville Center
Wed 07:05:51 AM 29.8592 -82.6650 13° North 391 450 34,900  Level Jacksonville Center
Wed 07:06:49 AM 29.9594 -82.6311 16° North 402 463 34,900  Level Jacksonville Center
Wed 07:07:50 AM 30.0886 -82.5900 15° North 413 475 34,900  Level Jacksonville Center
Wed 07:08:50 AM 30.2014 -82.5536 16° North 413 475 34,900  Level Jacksonville Center
Wed 07:09:51 AM 30.3139 -82.5172 16° North 413 475 34,900  Level Jacksonville Center
Wed 07:10:48 AM 30.4267 -82.4661 21° North 418 481 34,900 51 Level Jacksonville Center
Wed 07:11:49 AM 30.5306 -82.3692 39° Northeast 448 516 35,000  Climbing Jacksonville Center
Wed 07:12:51 AM 30.6222 -82.2819 39° Northeast 454 522 34,900  Descending Jacksonville Center
Wed 07:13:50 AM 30.7258 -82.1822 40° Northeast 469 540 35,000 50 Climbing Jacksonville Center
Wed 07:14:51 AM 30.8319 -82.0844 38° Northeast 474 545 35,000 -50 Level Jacksonville Center
Wed 07:15:51 AM 30.9356 -81.9867 39° Northeast 474 545 34,900 -51 Descending Jacksonville Center
Wed 07:16:48 AM 31.0372 -81.8889 39° Northeast 474 545 34,900 51 Level Jacksonville Center
Wed 07:17:49 AM 31.1428 -81.7931 38° Northeast 474 545 35,000 50 Climbing Jacksonville Center
Wed 07:18:49 AM 31.2483 -81.6897 40° Northeast 474 545 35,000  Level Jacksonville Center
Wed 07:19:50 AM 31.3664 -81.5786 39° Northeast 481 554 35,000  Level Jacksonville Center
Wed 07:20:50 AM 31.4675 -81.4797 40° Northeast 481 554 35,000  Level Jacksonville Center
Wed 07:21:50 AM 31.5625 -81.3858 40° Northeast 487 560 35,000  Level Jacksonville Center
Wed 07:22:51 AM 31.6822 -81.2739 38° Northeast 492 566 35,000  Level Jacksonville Center
Wed 07:23:50 AM 31.7769 -81.1794 40° Northeast 492 566 35,000  Level Jacksonville Center
Wed 07:24:50 AM 31.8967 -81.0669 39° Northeast 497 572 35,000 151 Level Jacksonville Center
Wed 07:25:49 AM 32.0014 -80.9622 40° Northeast 497 572 35,300 605 Climbing Jacksonville Center
Wed 07:26:49 AM 32.0961 -80.8719 39° Northeast 492 566 36,200 836 Climbing Jacksonville Center
Wed 07:27:51 AM 32.2111 -80.7589 40° Northeast 487 560 37,000 350 Climbing Jacksonville Center
Wed 07:28:49 AM 32.3036 -80.6658 40° Northeast 487 560 36,900  Descending Jacksonville Center
Wed 07:29:50 AM 32.4061 -80.5647 40° Northeast 487 560 37,000  Climbing Jacksonville Center
Wed 07:30:48 AM 32.5106 -80.4636 39° Northeast 482 555 36,900  Descending Jacksonville Center
Wed 07:31:49 AM 32.6131 -80.3622 40° Northeast 482 555 37,000  Climbing Jacksonville Center
Wed 07:32:50 AM 32.7153 -80.2581 41° Northeast 482 555 36,900 -49 Descending Jacksonville Center
Wed 07:33:51 AM 32.8194 -80.1536 40° Northeast 482 555 36,900  Level Jacksonville Center
Wed 07:34:48 AM 32.9236 -80.0492 40° Northeast 482 555 36,900 51 Level Jacksonville Center
Wed 07:35:49 AM 33.0381 -79.9339 40° Northeast 488 562 37,000 49 Climbing Jacksonville Center
Wed 07:36:50 AM 33.1461 -79.8286 39° Northeast 495 570 37,000  Level Jacksonville Center
Wed 07:37:51 AM 33.2497 -79.7208 41° Northeast 495 570 37,000  Level Jacksonville Center
Wed 07:38:49 AM 33.3578 -79.6125 40° Northeast 495 570 37,000 -50 Level Jacksonville Center
Wed 07:39:50 AM 33.4633 -79.5067 40° Northeast 495 570 36,900  Descending Jacksonville Center
Wed 07:42:09 AM 33.7025 -79.2608 41° Northeast 487 560 37,000 30 Climbing Washington Center
Wed 07:43:09 AM 33.8081 -79.1506 41° Northeast 492 566 37,000 -50 Level Washington Center
Wed 07:44:09 AM 33.9156 -79.0425 40° Northeast 492 566 36,900 -51 Descending Washington Center
Wed 07:45:07 AM 34.0208 -78.9342 40° Northeast 492 566 36,900 50 Level Washington Center
Wed 07:46:08 AM 34.1281 -78.8306 39° Northeast 492 566 37,000 50 Climbing Washington Center
Wed 07:47:08 AM 34.2353 -78.7219 40° Northeast 492 566 37,000 -50 Level Washington Center
Wed 07:48:09 AM 34.3422 -78.6153 39° Northeast 492 566 36,900 -50 Descending Washington Center
Wed 07:49:09 AM 34.4472 -78.5108 39° Northeast 487 560 36,900 50 Level Washington Center
Wed 07:50:10 AM 34.5433 -78.4108 41° Northeast 495 570 37,000  Climbing Washington Center
Wed 07:51:08 AM 34.6608 -78.2939 39° Northeast 490 564 36,900 -51 Descending Washington Center
Wed 07:52:08 AM 34.7656 -78.1886 40° Northeast 490 564 36,900 50 Level Washington Center
Wed 07:53:09 AM 34.8572 -78.0878 42° Northeast 490 564 37,000 50 Climbing Washington Center
Wed 07:54:09 AM 34.9639 -77.9794 40° Northeast 491 565 37,000  Level Washington Center
Wed 07:55:10 AM 35.0683 -77.8683 41° Northeast 491 565 37,000  Level Washington Center
Wed 07:56:07 AM 35.1806 -77.7750 34° Northeast 491 565 37,000  Level Washington Center
Wed 07:57:09 AM 35.2947 -77.6864 32° Northeast 484 557 37,000  Level Washington Center
Wed 07:58:09 AM 35.4111 -77.6003 31° Northeast 479 551 37,000  Level Washington Center
Wed 07:59:09 AM 35.5272 -77.5086 33° Northeast 484 557 37,000  Level Washington Center
Wed 08:00:10 AM 35.6392 -77.4194 33° Northeast 484 557 37,000  Level Washington Center
Wed 08:01:08 AM 35.7553 -77.3300 32° Northeast 489 563 37,000  Level Washington Center
Wed 08:02:10 AM 35.8694 -77.2403 32° Northeast 489 563 37,000 -50 Level Washington Center
Wed 08:03:08 AM 35.9833 -77.1475 33° Northeast 490 564 36,900 -50 Descending Washington Center
Wed 08:04:09 AM 36.0992 -77.0572 32° Northeast 490 564 36,900  Level Washington Center
Wed 08:05:10 AM 36.2150 -76.9692 32° Northeast 490 564 36,900  Level Washington Center
Wed 08:06:08 AM 36.3306 -76.8758 33° Northeast 490 564 36,900 50 Level Washington Center
Wed 08:07:09 AM 36.4464 -76.7850 32° Northeast 490 564 37,000  Climbing Washington Center
Wed 08:08:09 AM 36.5619 -76.6936 32° Northeast 490 564 36,900 -50 Descending Washington Center
Wed 08:09:10 AM 36.6881 -76.5917 33° Northeast 490 564 36,900 50 Level Washington Center
Wed 08:10:10 AM 36.8056 -76.4947 33° Northeast 490 564 37,000 51 Climbing Washington Center
Wed 08:11:08 AM 36.9189 -76.3997 34° Northeast 490 564 37,000  Level Washington Center
Wed 08:12:09 AM 37.0344 -76.3047 33° Northeast 490 564 37,000  Level Washington Center
Wed 08:13:09 AM 37.1517 -76.2119 32° Northeast 490 564 37,000 -50 Level Washington Center
Wed 08:14:08 AM 37.2731 -76.1192 31° Northeast 495 570 36,900  Descending Washington Center
Wed 08:15:09 AM 37.3903 -76.0231 33° Northeast 501 577 37,000 50 Climbing Washington Center
Wed 08:16:09 AM 37.5075 -75.9244 34° Northeast 501 577 37,000  Level Washington Center
Wed 08:17:08 AM 37.6244 -75.8303 33° Northeast 501 577 37,000 -50 Level Washington Center
Wed 08:18:08 AM 37.7414 -75.7308 34° Northeast 501 577 36,900 -50 Descending Washington Center
Wed 08:19:09 AM 37.8625 -75.6311 33° Northeast 506 582 36,900  Level Washington Center
Wed 08:20:10 AM 37.9792 -75.5339 33° Northeast 506 582 36,900  Level Washington Center
Wed 08:21:10 AM 38.0981 -75.4361 33° Northeast 506 582 36,900  Level Washington Center
Wed 08:22:08 AM 38.2231 -75.3617 25° Northeast 494 568 36,900 51 Level Washington Center
Wed 08:23:08 AM 38.3500 -75.2792 27° Northeast 489 563 37,000 -836 Climbing Washington Center
Wed 08:24:10 AM 38.4728 -75.2019 26° Northeast 489 563 35,200 -1,050 Descending Washington Center
Wed 08:25:08 AM 38.5997 -75.1189 27° Northeast 489 563 34,900 -153 Descending Washington Center
Wed 08:26:08 AM 38.7286 -75.0408 25° Northeast 494 568 34,900 -99 Level Washington Center
Wed 08:27:09 AM 38.8553 -74.9572 27° Northeast 499 574 34,700 -1,240 Descending Washington Center
Wed 08:28:09 AM 38.9819 -74.8733 27° Northeast 504 580 32,400 -2,479 Descending Washington Center
Wed 08:29:10 AM 39.0981 -74.7892 29° Northeast 509 586 29,700 -2,700 Descending Washington Center
Wed 08:30:09 AM 39.2161 -74.6672 39° Northeast 526 605 27,000 -2,834 Descending Washington Center
Wed 08:32:29 AM 39.4917 -74.3728 39° Northeast 511 588 20,300 -2,700 Descending New York Center
Wed 08:33:29 AM 39.5886 -74.2647 41° Northeast 511 588 18,000 -2,000 Descending New York Center
Wed 08:34:29 AM 39.6878 -74.1564 40° Northeast 487 560 16,300 -1,850 Descending New York Center
Wed 08:35:29 AM 39.7911 -74.0425 40° Northeast 452 520 14,300 -1,900 Descending New York Center
Wed 08:36:29 AM 39.8872 -73.9550 35° Northeast 428 493 12,500 -1,650 Descending New York Center
Wed 08:37:29 AM 39.9828 -73.8889 28° Northeast 399 459 11,000 -750 Descending New York Center
Wed 08:38:29 AM 40.0550 -73.8353 30° Northeast 350 403 11,000 -750 Level New York Center
Wed 08:39:29 AM 40.1358 -73.7736 30° Northeast 311 358 9,500 -1,250 Descending New York Center
Wed 08:40:29 AM 40.2100 -73.7225 28° Northeast 300 345 8,500 -1,300 Descending New York Center
Wed 08:41:29 AM 40.2778 -73.6792 26° Northeast 281 323 6,900 -1,500 Descending New York Center
Wed 08:42:29 AM 40.3478 -73.6358 25° Northeast 276 318 5,500 -1,450 Descending New York Center
Wed 08:43:29 AM 40.4172 -73.6006 21° North 271 312 4,000 -750 Descending New York Center
Wed 08:44:29 AM 40.4850 -73.5625 23° Northeast 266 306 4,000  Level New York Center
Wed 08:45:29 AM 40.5525 -73.5269 22° Northeast 266 306 4,000 -450 Level New York Center
Wed 08:46:29 AM 40.6172 -73.5186 North 249 287 3,100 -1,000 Descending New York Center
Wed 08:47:29 AM 40.6917 -73.5381 349° North 249 287 2,000 -550 Descending New York Center
Wed 08:48:29 AM 40.7428 -73.5867 324° Northwest 244 281 2,000  Level New York Center
Wed 08:49:29 AM 40.7636 -73.6644 289° West 217 250 2,000 -50 Level New York Center
Wed 08:50:29 AM 40.7233 -73.6983 213° Southwest 172 198 1,900 -520 Descending New York Center
Wed 08:51:36 AM 40.6833 -73.7333 214° Southwest 130 150 900 -803 Descending New York TRACON
Wed 08:52:36 AM 40.6500 -73.7500 201° Southwest 126 145 200 -700 Descending New York TRACON
Wed 08:54:00 AM 40.6333 -73.7667 227° Southwest  Level FlightAware Approximate
Wed 09:01:00 AM 40.6398 -73.7789 227° Southwest  Level Estimated

Login

Don't have an account? Register now (free) for customized features, flight alerts, and more!